createdAt,value
2022-10-26T00:00:54.385Z,66.53
2022-10-26T00:03:22.488Z,66.60
2022-10-26T00:05:50.433Z,65.87
2022-10-26T00:08:18.448Z,64.67
2022-10-26T00:10:46.352Z,64.37
2022-10-26T00:13:14.571Z,64.90
2022-10-26T00:15:43.103Z,66.97
2022-10-26T00:18:12.548Z,68.00
2022-10-26T00:20:40.566Z,68.60
2022-10-26T00:23:08.628Z,67.37
2022-10-26T00:25:36.595Z,67.87
2022-10-26T00:28:04.785Z,68.80
2022-10-26T00:30:32.727Z,69.93
2022-10-26T00:33:00.750Z,68.47
2022-10-26T00:35:44.993Z,70.47
2022-10-26T00:38:13.580Z,72.13
2022-10-26T00:40:42.085Z,73.67
2022-10-26T00:43:17.120Z,74.43
2022-10-26T00:45:46.625Z,75.80
2022-10-26T00:48:23.094Z,75.77
2022-10-26T00:50:54.689Z,77.13
2022-10-26T00:53:22.716Z,75.23
2022-10-26T00:55:53.665Z,76.13
2022-10-26T00:58:24.028Z,75.33
2022-10-26T01:00:52.808Z,75.60
2022-10-26T01:03:21.765Z,73.03
2022-10-26T01:05:54.984Z,75.30
2022-10-26T01:08:23.302Z,74.27
2022-10-26T01:10:51.885Z,73.87
2022-10-26T01:13:20.581Z,73.07
2022-10-26T01:15:54.434Z,72.83
2022-10-26T01:18:29.915Z,73.23
2022-10-26T01:21:24.941Z,71.00
2022-10-26T01:24:10.486Z,71.03
2022-10-26T01:27:02.735Z,69.80
2022-10-26T01:29:55.682Z,69.23
2022-10-26T01:32:32.068Z,70.13
2022-10-26T01:35:10.063Z,69.93
2022-10-26T01:37:43.095Z,69.67
2022-10-26T01:40:17.858Z,67.33
2022-10-26T01:42:52.568Z,67.20
2022-10-26T01:45:20.950Z,66.20
2022-10-26T01:47:51.331Z,65.10
2022-10-26T01:50:21.016Z,65.80
2022-10-26T01:52:51.560Z,63.40
2022-10-26T01:55:45.919Z,62.50
2022-10-26T01:58:33.386Z,62.50
2022-10-26T02:01:15.781Z,61.17
2022-10-26T02:03:51.976Z,62.10
2022-10-26T02:06:27.407Z,61.93
2022-10-26T02:09:07.667Z,62.77
2022-10-26T02:11:41.418Z,60.67
2022-10-26T02:14:19.614Z,59.10
2022-10-26T02:16:56.416Z,59.00
2022-10-26T02:19:35.173Z,56.20
2022-10-26T02:22:12.346Z,57.73
2022-10-26T02:24:42.498Z,56.60
2022-10-26T02:27:17.468Z,56.93
2022-10-26T02:29:46.486Z,58.07
2022-10-26T02:32:15.592Z,58.60
2022-10-26T02:34:47.256Z,59.60
2022-10-26T02:37:19.479Z,57.20
2022-10-26T02:39:49.249Z,57.83
2022-10-26T02:42:19.432Z,58.03
2022-10-26T02:44:51.514Z,57.40
2022-10-26T02:47:20.785Z,54.80
2022-10-26T02:49:50.492Z,57.00
2022-10-26T02:52:25.234Z,54.23
2022-10-26T02:54:58.030Z,54.53
2022-10-26T02:57:32.885Z,55.53
2022-10-26T03:00:01.753Z,54.80
2022-10-26T03:02:30.781Z,54.93
2022-10-26T03:05:08.814Z,54.60
2022-10-26T03:07:36.891Z,54.33
2022-10-26T03:10:05.299Z,53.53
2022-10-26T03:12:33.319Z,53.83
2022-10-26T03:15:01.348Z,54.40
2022-10-26T03:17:29.321Z,51.80
2022-10-26T03:19:57.492Z,53.60
2022-10-26T03:22:26.957Z,52.93
2022-10-26T03:24:55.012Z,54.33
2022-10-26T03:27:23.152Z,55.67
2022-10-26T03:29:51.281Z,56.90
2022-10-26T03:32:19.257Z,59.13
2022-10-26T03:34:47.369Z,58.47
2022-10-26T03:37:15.400Z,59.10
2022-10-26T03:39:44.730Z,61.00
2022-10-26T03:42:12.695Z,62.43
2022-10-26T03:44:40.615Z,61.80
2022-10-26T03:47:08.631Z,63.07
2022-10-26T03:49:37.103Z,62.17
2022-10-26T03:52:05.739Z,61.43
2022-10-26T03:54:33.699Z,63.27
2022-10-26T03:57:03.003Z,62.27
2022-10-26T03:59:31.031Z,64.27
2022-10-26T04:01:59.055Z,63.27
2022-10-26T04:04:27.326Z,65.03
2022-10-26T04:06:55.404Z,65.00
2022-10-26T04:09:23.627Z,65.73
2022-10-26T04:11:51.604Z,65.57
2022-10-26T04:14:20.958Z,65.40
2022-10-26T04:16:48.983Z,66.70
2022-10-26T04:19:17.467Z,66.70
2022-10-26T04:21:45.463Z,66.87
2022-10-26T04:24:13.680Z,67.30
2022-10-26T04:26:41.613Z,65.80
2022-10-26T04:29:10.147Z,67.80
2022-10-26T04:31:39.512Z,68.97
2022-10-26T04:34:07.463Z,68.07
2022-10-26T04:36:35.727Z,67.17
2022-10-26T04:39:03.844Z,67.93
2022-10-26T04:41:32.173Z,70.13
2022-10-26T04:44:00.241Z,70.87
2022-10-26T04:46:28.403Z,78.33
2022-10-26T04:48:57.717Z,76.77
2022-10-26T04:51:25.690Z,72.17
2022-10-26T04:53:55.339Z,70.53
2022-10-26T04:56:23.356Z,67.63
2022-10-26T04:58:51.393Z,77.40
2022-10-26T05:01:19.424Z,80.90
2022-10-26T05:03:50.704Z,82.20
2022-10-26T05:06:20.301Z,79.57
2022-10-26T05:08:48.578Z,81.10
2022-10-26T05:11:16.824Z,79.50
2022-10-26T05:13:44.733Z,78.33
2022-10-26T05:16:12.689Z,77.53
2022-10-26T05:18:40.666Z,78.03
2022-10-26T05:21:08.633Z,79.00
2022-10-26T05:23:38.062Z,82.00
2022-10-26T05:26:06.340Z,82.47
2022-10-26T05:28:34.285Z,83.70
2022-10-26T05:31:02.276Z,86.23
2022-10-26T05:33:30.282Z,84.97
2022-10-26T05:35:58.262Z,85.43
2022-10-26T05:41:01.315Z,84.30
2022-10-26T05:43:30.348Z,82.40
2022-10-26T05:45:58.406Z,81.93
2022-10-26T05:48:26.389Z,80.57
2022-10-26T05:50:54.436Z,83.50
2022-10-26T05:53:22.384Z,83.57
2022-10-26T05:55:50.978Z,83.40
2022-10-26T05:58:21.157Z,83.10
2022-10-26T06:01:15.378Z,84.63
2022-10-26T06:03:56.190Z,82.07
2022-10-26T06:06:24.810Z,81.80
2022-10-26T06:08:53.298Z,82.47
2022-10-26T06:11:21.936Z,84.43
2022-10-26T06:13:54.642Z,82.47
2022-10-26T06:16:35.156Z,81.50
2022-10-26T06:19:13.519Z,81.33
2022-10-26T06:21:54.089Z,81.77
2022-10-26T06:24:29.577Z,79.67
2022-10-26T06:27:02.963Z,81.70
2022-10-26T06:29:44.492Z,79.47
2022-10-26T06:32:13.158Z,77.73
2022-10-26T06:34:46.424Z,77.27
2022-10-26T06:37:15.075Z,74.03
2022-10-26T06:39:50.017Z,75.00
2022-10-26T06:42:21.272Z,73.63
2022-10-26T06:44:51.370Z,72.90
2022-10-26T06:47:27.169Z,73.37
2022-10-26T06:50:05.006Z,72.13
2022-10-26T06:52:37.866Z,72.30
2022-10-26T06:55:06.821Z,69.83
2022-10-26T06:57:36.916Z,68.17
2022-10-26T07:00:09.482Z,67.50
2022-10-26T07:02:37.597Z,67.93
2022-10-26T07:05:10.236Z,64.40
2022-10-26T07:07:43.030Z,63.27
2022-10-26T07:10:11.726Z,61.37
2022-10-26T07:12:39.833Z,60.73
2022-10-26T07:17:46.789Z,57.97
2022-10-26T07:20:15.535Z,58.87
2022-10-26T07:22:43.891Z,56.77
2022-10-26T07:25:13.270Z,55.13
2022-10-26T07:27:41.218Z,54.80
2022-10-26T07:30:11.923Z,54.73
2022-10-26T07:32:39.949Z,54.97
2022-10-26T07:35:08.529Z,52.97
2022-10-26T07:37:36.545Z,52.97
2022-10-26T07:40:06.755Z,51.07
2022-10-26T07:42:36.647Z,49.77
2022-10-26T07:45:06.084Z,48.57
2022-10-26T07:47:35.572Z,47.63
2022-10-26T07:50:05.108Z,46.47
2022-10-26T07:52:34.940Z,45.13
2022-10-26T07:55:02.904Z,44.63
2022-10-26T07:57:30.899Z,42.30
2022-10-26T07:59:59.014Z,42.50
2022-10-26T08:02:27.062Z,40.37
2022-10-26T08:04:56.489Z,40.33
2022-10-26T08:07:25.949Z,40.67
2022-10-26T08:09:54.104Z,39.30
2022-10-26T08:12:22.333Z,38.60
2022-10-26T08:14:50.331Z,38.20
2022-10-26T08:17:18.297Z,38.70
2022-10-26T08:19:48.935Z,37.40
2022-10-26T08:22:18.375Z,37.13
2022-10-26T08:24:47.013Z,36.30
2022-10-26T08:27:15.160Z,37.10
2022-10-26T08:29:43.945Z,35.50
2022-10-26T08:32:12.013Z,35.57
2022-10-26T08:34:39.983Z,33.70
2022-10-26T08:37:08.015Z,30.70
2022-10-26T08:39:37.477Z,29.70
2022-10-26T08:42:11.889Z,30.10
2022-10-26T08:44:45.309Z,30.00
2022-10-26T08:50:00.416Z,27.10
2022-10-26T08:52:35.797Z,25.67
2022-10-26T08:55:12.059Z,26.27
2022-10-26T08:57:42.458Z,24.97
2022-10-26T09:00:15.517Z,24.07
2022-10-26T09:02:43.597Z,23.83
2022-10-26T09:05:17.192Z,23.73
2022-10-26T09:07:55.967Z,21.80
2022-10-26T09:10:41.211Z,21.40
2022-10-26T09:13:23.928Z,21.53
2022-10-26T09:16:01.208Z,19.80
2022-10-26T09:18:38.739Z,17.70
2022-10-26T09:21:14.965Z,17.57
2022-10-26T09:24:00.436Z,17.40
2022-10-26T09:26:40.215Z,15.87
2022-10-26T09:29:14.067Z,14.37
2022-10-26T09:31:43.872Z,15.00
2022-10-26T09:34:20.532Z,14.05
2022-10-26T09:36:48.649Z,13.50
2022-10-26T09:39:25.360Z,12.98
2022-10-26T09:41:59.379Z,12.90
2022-10-26T09:44:32.595Z,12.52
2022-10-26T09:47:06.712Z,11.68
2022-10-26T09:49:41.388Z,11.20
2022-10-26T09:54:42.546Z,11.30
2022-10-26T09:57:16.266Z,9.88
2022-10-26T09:59:44.596Z,10.65
2022-10-26T10:02:34.731Z,9.82
2022-10-26T10:05:03.230Z,10.27
2022-10-26T10:07:31.303Z,9.95
2022-10-26T10:10:15.853Z,9.32
2022-10-26T10:12:47.466Z,8.05
2022-10-26T10:15:20.872Z,8.32
2022-10-26T10:17:53.004Z,8.43
2022-10-26T10:20:23.785Z,8.43
2022-10-26T10:22:59.588Z,8.20
2022-10-26T10:25:36.715Z,8.13
2022-10-26T10:30:57.381Z,7.45
2022-10-26T10:33:34.927Z,7.53
2022-10-26T10:36:04.852Z,7.00
2022-10-26T10:38:39.043Z,7.28
2022-10-26T10:41:15.616Z,7.15
2022-10-26T10:43:48.371Z,6.47
2022-10-26T10:46:21.384Z,5.10
2022-10-26T10:48:52.931Z,5.00
2022-10-26T10:51:23.417Z,4.70
2022-10-26T10:53:53.391Z,4.70
2022-10-26T10:56:41.610Z,5.18
2022-10-26T10:59:29.822Z,5.40
2022-10-26T11:02:19.393Z,5.53
2022-10-26T11:05:05.779Z,6.05
2022-10-26T11:07:47.115Z,6.15
2022-10-26T11:10:18.988Z,6.68
2022-10-26T11:12:52.984Z,6.10
2022-10-26T11:15:27.013Z,5.80
2022-10-26T11:18:05.122Z,6.93
2022-10-26T11:20:36.628Z,6.47
2022-10-26T11:23:10.622Z,6.65
2022-10-26T11:25:46.136Z,5.85
2022-10-26T11:28:17.799Z,7.43
2022-10-26T11:30:51.193Z,7.70
2022-10-26T11:33:24.610Z,8.55
2022-10-26T11:35:58.930Z,7.45
2022-10-26T11:38:46.250Z,7.63
2022-10-26T11:41:31.062Z,7.38
2022-10-26T11:44:06.863Z,7.30
2022-10-26T11:46:42.134Z,6.05
2022-10-26T11:49:18.634Z,6.15
2022-10-26T11:51:53.361Z,6.35
2022-10-26T11:54:25.261Z,5.53
2022-10-26T11:56:57.070Z,5.82
2022-10-26T11:59:30.812Z,5.22
2022-10-26T12:02:07.464Z,4.97
2022-10-26T12:04:38.952Z,4.95
2022-10-26T12:07:14.483Z,5.60
2022-10-26T12:09:45.181Z,7.05
2022-10-26T12:12:22.923Z,4.30
2022-10-26T12:14:57.539Z,4.07
2022-10-26T12:17:36.006Z,4.32
2022-10-26T12:20:15.070Z,4.75
2022-10-26T12:22:43.755Z,4.68
2022-10-26T12:25:21.786Z,4.00
2022-10-26T12:27:55.477Z,4.40
2022-10-26T12:30:30.357Z,4.40
2022-10-26T12:33:01.554Z,3.80
2022-10-26T12:35:44.950Z,4.40
2022-10-26T12:38:57.902Z,4.05
2022-10-26T12:41:27.537Z,4.80
2022-10-26T12:44:26.065Z,4.60
2022-10-26T12:46:54.030Z,4.80
2022-10-26T12:49:56.388Z,4.50
2022-10-26T12:52:44.749Z,4.30
2022-10-26T12:55:42.571Z,3.72
2022-10-26T12:58:26.460Z,3.00
2022-10-26T13:01:15.862Z,3.50
2022-10-26T13:03:56.830Z,3.30
2022-10-26T13:06:46.858Z,2.95
2022-10-26T13:09:21.233Z,3.33
2022-10-26T13:11:51.087Z,3.90
2022-10-26T13:14:24.965Z,3.40
2022-10-26T13:16:53.805Z,3.40
2022-10-26T13:19:27.682Z,3.42
2022-10-26T13:22:00.055Z,3.17
2022-10-26T13:24:32.377Z,3.28
2022-10-26T13:27:40.805Z,2.80
2022-10-26T13:30:22.725Z,3.15
2022-10-26T13:32:54.210Z,3.17
2022-10-26T13:35:24.927Z,3.03
2022-10-26T13:37:55.294Z,3.50
2022-10-26T13:40:27.320Z,2.95
2022-10-26T13:42:58.563Z,3.65
2022-10-26T13:45:29.353Z,3.78
2022-10-26T13:48:02.542Z,3.55
2022-10-26T13:50:37.484Z,4.40
2022-10-26T13:53:11.299Z,3.70
2022-10-26T13:55:49.992Z,3.00
2022-10-26T13:58:40.198Z,2.88
2022-10-26T14:01:18.721Z,3.40
2022-10-26T14:03:48.394Z,3.35
2022-10-26T14:06:21.467Z,3.20
2022-10-26T14:08:51.743Z,3.22
2022-10-26T14:11:23.526Z,3.50
2022-10-26T14:13:52.891Z,2.90
2022-10-26T14:16:22.641Z,3.25
2022-10-26T14:18:50.889Z,3.58
2022-10-26T14:21:21.626Z,3.50
2022-10-26T14:23:52.392Z,3.42
2022-10-26T14:26:24.650Z,3.15
2022-10-26T14:28:54.654Z,2.63
2022-10-26T14:31:25.404Z,3.30
2022-10-26T14:33:54.758Z,3.20
2022-10-26T14:36:27.032Z,3.10
2022-10-26T14:39:00.121Z,3.17
2022-10-26T14:41:30.610Z,3.10
2022-10-26T14:44:00.807Z,3.22
2022-10-26T14:46:33.514Z,2.78
2022-10-26T14:49:03.209Z,3.88
2022-10-26T14:51:32.292Z,3.67
2022-10-26T14:54:01.842Z,3.53
2022-10-26T14:56:39.685Z,3.38
2022-10-26T14:59:13.344Z,3.53
2022-10-26T15:01:53.664Z,3.88
2022-10-26T15:04:33.914Z,3.50
2022-10-26T15:07:17.955Z,4.38
2022-10-26T15:09:47.270Z,4.30
2022-10-26T15:12:28.682Z,4.90
2022-10-26T15:14:57.548Z,5.50
2022-10-26T15:17:32.063Z,4.65
2022-10-26T15:20:05.432Z,4.20
2022-10-26T15:22:34.627Z,4.03
2022-10-26T15:25:05.362Z,4.43
2022-10-26T15:27:34.894Z,4.22
2022-10-26T15:30:22.632Z,3.80
2022-10-26T15:32:51.362Z,6.65
2022-10-26T15:35:30.162Z,13.00
2022-10-26T15:38:00.763Z,4.05
2022-10-26T15:40:30.704Z,3.88
2022-10-26T15:43:02.160Z,5.97
2022-10-26T15:45:33.268Z,3.83
2022-10-26T15:48:19.367Z,3.70
2022-10-26T15:50:47.425Z,5.85
2022-10-26T15:53:20.612Z,6.65
2022-10-26T15:55:49.130Z,5.28
2022-10-26T15:58:18.906Z,4.72
2022-10-26T16:00:47.025Z,4.57
2022-10-26T16:03:18.056Z,6.15
2022-10-26T16:05:46.139Z,5.88
2022-10-26T16:08:18.055Z,5.47
2022-10-26T16:10:48.456Z,5.40
2022-10-26T16:13:18.623Z,4.50
2022-10-26T16:15:46.724Z,4.68
2022-10-26T16:18:14.945Z,5.32
2022-10-26T16:20:45.917Z,4.22
2022-10-26T16:23:13.965Z,5.35
2022-10-26T16:25:44.160Z,5.35
2022-10-26T16:28:13.618Z,5.00
2022-10-26T16:30:43.744Z,6.55
2022-10-26T16:33:11.762Z,7.65
2022-10-26T16:35:39.749Z,10.32
2022-10-26T16:38:07.917Z,11.70
2022-10-26T16:40:35.885Z,11.60
2022-10-26T16:43:03.896Z,12.75
2022-10-26T16:45:31.875Z,11.57
2022-10-26T16:48:05.772Z,8.23
2022-10-26T16:50:36.302Z,6.97
2022-10-26T16:53:04.664Z,6.40
2022-10-26T16:55:33.031Z,5.93
2022-10-26T16:58:02.233Z,7.30
2022-10-26T17:00:30.419Z,7.27
2022-10-26T17:03:00.132Z,6.67
2022-10-26T17:05:29.766Z,6.67
2022-10-26T17:07:57.697Z,6.00
2022-10-26T17:10:27.974Z,5.90
2022-10-26T17:12:57.301Z,6.30
2022-10-26T17:15:28.902Z,6.50
2022-10-26T17:17:57.319Z,7.83
2022-10-26T17:20:25.308Z,6.43
2022-10-26T17:22:54.623Z,7.13
2022-10-26T17:25:22.824Z,7.63
2022-10-26T17:27:50.812Z,8.20
2022-10-26T17:30:18.948Z,8.77
2022-10-26T17:32:47.010Z,8.87
2022-10-26T17:35:16.958Z,9.87
2022-10-26T17:37:45.020Z,10.50
2022-10-26T17:40:14.613Z,10.77
2022-10-26T17:42:42.625Z,12.30
2022-10-26T17:45:11.148Z,12.17
2022-10-26T17:47:39.264Z,12.60
2022-10-26T17:50:08.344Z,12.63
2022-10-26T17:52:36.467Z,12.77
2022-10-26T17:55:04.667Z,13.67
2022-10-26T17:57:34.679Z,14.00
2022-10-26T18:00:03.921Z,15.33
2022-10-26T18:02:40.480Z,14.33
2022-10-26T18:05:09.649Z,15.53
2022-10-26T18:07:37.678Z,13.93
2022-10-26T18:10:13.954Z,15.83
2022-10-26T18:12:55.632Z,17.43
2022-10-26T18:15:24.875Z,17.70
2022-10-26T18:17:56.847Z,17.90
2022-10-26T18:20:27.946Z,17.40
2022-10-26T18:22:56.707Z,17.67
2022-10-26T18:25:24.923Z,16.63
2022-10-26T18:27:53.724Z,17.83
2022-10-26T18:30:24.960Z,19.13
2022-10-26T18:32:53.930Z,18.93
2022-10-26T18:35:22.383Z,18.30
2022-10-26T18:37:51.550Z,19.30
2022-10-26T18:40:20.206Z,20.50
2022-10-26T18:42:49.314Z,22.87
2022-10-26T18:45:17.489Z,23.03
2022-10-26T18:47:46.802Z,23.47
2022-10-26T18:50:15.036Z,23.23
2022-10-26T18:52:43.061Z,24.17
2022-10-26T18:55:11.245Z,24.80
2022-10-26T18:57:39.310Z,25.17
2022-10-26T19:00:08.480Z,24.53
2022-10-26T19:02:36.599Z,25.23
2022-10-26T19:05:06.746Z,23.03
2022-10-26T19:07:34.764Z,22.83
2022-10-26T19:10:02.688Z,23.77
2022-10-26T19:12:30.706Z,22.77
2022-10-26T19:14:58.799Z,22.70
2022-10-26T19:17:27.254Z,23.30
2022-10-26T19:19:55.220Z,21.60
2022-10-26T19:22:24.615Z,20.83
2022-10-26T19:24:52.618Z,21.60
2022-10-26T19:27:20.577Z,25.50
2022-10-26T19:29:48.575Z,23.90
2022-10-26T19:32:16.607Z,19.90
2022-10-26T19:34:44.669Z,19.47
2022-10-26T19:37:13.493Z,18.83
2022-10-26T19:39:43.420Z,18.93
2022-10-26T19:42:11.386Z,18.80
2022-10-26T19:44:39.514Z,19.10
2022-10-26T19:47:07.785Z,18.83
2022-10-26T19:49:35.871Z,20.10
2022-10-26T19:52:03.859Z,20.27
2022-10-26T19:54:31.791Z,19.13
2022-10-26T19:57:01.165Z,19.60
2022-10-26T19:59:29.178Z,20.37
2022-10-26T20:01:58.198Z,20.93
2022-10-26T20:04:26.187Z,21.17
2022-10-26T20:06:54.236Z,21.20
2022-10-26T20:09:22.186Z,21.03
2022-10-26T20:11:50.564Z,22.23
2022-10-26T20:14:19.927Z,23.30
2022-10-26T20:16:48.014Z,22.20
2022-10-26T20:19:15.905Z,22.43
2022-10-26T20:21:43.879Z,22.80
2022-10-26T20:24:12.008Z,22.50
2022-10-26T20:26:40.170Z,23.67
2022-10-26T20:29:08.105Z,23.70
2022-10-26T20:31:37.473Z,23.63
2022-10-26T20:34:05.667Z,23.97
2022-10-26T20:36:33.654Z,23.80
2022-10-26T20:39:02.220Z,22.90
2022-10-26T20:41:30.637Z,22.63
2022-10-26T20:43:59.370Z,22.83
2022-10-26T20:46:28.811Z,24.43
2022-10-26T20:48:58.819Z,25.23
2022-10-26T20:51:40.013Z,26.50
2022-10-26T20:54:19.097Z,26.77
2022-10-26T20:56:49.516Z,27.10
2022-10-26T20:59:23.419Z,28.47
2022-10-26T21:01:51.572Z,31.17
2022-10-26T21:04:20.947Z,30.57
2022-10-26T21:06:48.977Z,30.27
2022-10-26T21:09:16.921Z,30.73
2022-10-26T21:11:45.526Z,31.77
2022-10-26T21:14:13.599Z,30.47
2022-10-26T21:16:41.537Z,31.30
2022-10-26T21:19:09.507Z,32.80
2022-10-26T21:21:38.901Z,31.90
2022-10-26T21:24:07.724Z,32.47
2022-10-26T21:26:35.653Z,33.00
2022-10-26T21:29:03.695Z,33.63
2022-10-26T21:31:31.627Z,32.90
2022-10-26T21:33:59.665Z,34.87
2022-10-26T21:36:27.743Z,35.50
2022-10-26T21:38:57.283Z,37.27
2022-10-26T21:44:08.405Z,37.63
2022-10-26T21:46:38.564Z,37.80
2022-10-26T21:49:06.574Z,39.67
2022-10-26T21:51:35.056Z,40.00
2022-10-26T21:54:04.714Z,40.60
2022-10-26T21:56:32.711Z,40.97
2022-10-26T21:59:01.616Z,40.20
2022-10-26T22:01:29.723Z,41.77
2022-10-26T22:03:57.833Z,43.27
2022-10-26T22:06:26.096Z,43.07
2022-10-26T22:08:54.442Z,43.80
2022-10-26T22:11:25.655Z,41.90
2022-10-26T22:13:54.245Z,42.70
2022-10-26T22:16:24.547Z,43.27
2022-10-26T22:18:54.439Z,44.13
2022-10-26T22:21:25.096Z,47.70
2022-10-26T22:23:53.883Z,56.33
2022-10-26T22:26:24.968Z,83.33
2022-10-26T22:28:54.776Z,73.60
2022-10-26T22:31:25.552Z,52.87
2022-10-26T22:33:54.025Z,50.57
2022-10-26T22:36:22.497Z,48.80
2022-10-26T22:38:50.884Z,48.40
2022-10-26T22:41:20.063Z,48.60
2022-10-26T22:43:50.766Z,50.10
2022-10-26T22:46:21.195Z,50.83
2022-10-26T22:48:49.345Z,51.73
2022-10-26T22:51:19.792Z,52.47
2022-10-26T22:53:51.899Z,51.83
2022-10-26T22:56:20.289Z,53.03
2022-10-26T22:58:50.310Z,52.67
2022-10-26T23:01:20.516Z,54.43
2022-10-26T23:03:48.579Z,55.53
2022-10-26T23:06:19.455Z,56.70
2022-10-26T23:08:47.423Z,56.63
2022-10-26T23:11:18.014Z,58.97
2022-10-26T23:13:46.025Z,59.80
2022-10-26T23:16:17.966Z,60.57
2022-10-26T23:18:46.113Z,60.80
2022-10-26T23:21:15.138Z,59.63
2022-10-26T23:23:43.357Z,59.63
2022-10-26T23:26:13.341Z,57.83
2022-10-26T23:28:42.935Z,57.83
2022-10-26T23:31:16.499Z,58.10
2022-10-26T23:33:44.922Z,56.20
2022-10-26T23:36:13.127Z,56.53
2022-10-26T23:38:41.331Z,56.67
2022-10-26T23:41:12.108Z,57.00
2022-10-26T23:43:41.671Z,55.17
2022-10-26T23:46:09.677Z,55.00
2022-10-26T23:48:39.051Z,57.40
2022-10-26T23:51:07.342Z,55.93
2022-10-26T23:53:35.598Z,56.27
2022-10-26T23:56:03.982Z,55.13
2022-10-26T23:58:32.110Z,54.70
